PRIVATE WETTERSTATION BILLIGHEIM-ALLFELD                       ZURCK
Wetterdaten: Sonntag, 01.06.2014
Datum Zeit Temp. A. Temp. A. min Temp. A. max Feuchte A. Luftdruck Regen Wind Richtung Richtung Sonnenschein ET Solar Taupunkt Windchill Windben Empfang
01.06.2014 00:00 10,8 C 10,8 C 10,9 C 77 % 1019,6 hPa 0,0 l/m 0,0 km/h (0 Bft) N 0 0 min 0,025 mm 0 W/m 6,9 C 10,8 C 0,0 km/h (0 Bft) 100 %
01.06.2014 00:10 10,7 C 10,7 C 10,8 C 79 % 1019,7 hPa 0,0 l/m 0,0 km/h (0 Bft) N 0 0 min 0,000 mm 0 W/m 7,2 C 10,7 C 0,0 km/h (0 Bft) 100 %
01.06.2014 00:20 10,6 C 10,6 C 10,8 C 80 % 1019,7 hPa 0,0 l/m 0,0 km/h (0 Bft) N 0 0 min 0,000 mm 0 W/m 7,3 C 10,6 C 0,0 km/h (0 Bft) 100 %
01.06.2014 00:30 10,4 C 10,4 C 10,6 C 80 % 1019,6 hPa 0,0 l/m 0,0 km/h (0 Bft) N 0 0 min 0,000 mm 0 W/m 7,1 C 10,4 C 0,0 km/h (0 Bft) 100 %
01.06.2014 00:40 10,3 C 10,3 C 10,4 C 80 % 1019,5 hPa 0,0 l/m 0,0 km/h (0 Bft) N 0 0 min 0,000 mm 0 W/m 7,0 C 10,3 C 0,0 km/h (0 Bft) 100 %
01.06.2014 00:50 10,2 C 10,2 C 10,3 C 81 % 1019,6 hPa 0,0 l/m 0,0 km/h (0 Bft) N 0 0 min 0,000 mm 0 W/m 7,1 C 10,2 C 0,0 km/h (0 Bft) 100 %
01.06.2014 01:00 10,1 C 10,1 C 10,2 C 82 % 1019,5 hPa 0,0 l/m 0,0 km/h (0 Bft) N 0 0 min 0,025 mm 0 W/m 7,2 C 10,1 C 0,0 km/h (0 Bft) 100 %
01.06.2014 01:10 9,8 C 9,8 C 10,1 C 82 % 1019,4 hPa 0,0 l/m 0,0 km/h (0 Bft) N 0 0 min 0,000 mm 0 W/m 6,9 C 9,8 C 0,0 km/h (0 Bft) 100 %
01.06.2014 01:20 9,6 C 9,6 C 9,8 C 82 % 1019,4 hPa 0,0 l/m 0,0 km/h (0 Bft) N 0 0 min 0,000 mm 0 W/m 6,7 C 9,6 C 0,0 km/h (0 Bft) 100 %
01.06.2014 01:30 9,5 C 9,5 C 9,6 C 83 % 1019,4 hPa 0,0 l/m 0,0 km/h (0 Bft) N 0 0 min 0,000 mm 0 W/m 6,8 C 9,5 C 0,0 km/h (0 Bft) 100 %
01.06.2014 01:40 9,4 C 9,4 C 9,5 C 83 % 1019,4 hPa 0,0 l/m 0,0 km/h (0 Bft) N 0 0 min 0,000 mm 0 W/m 6,7 C 9,4 C 0,0 km/h (0 Bft) 86 %
01.06.2014 01:50 9,2 C 9,2 C 9,4 C 83 % 1019,3 hPa 0,0 l/m 0,0 km/h (0 Bft) N 0 0 min 0,000 mm 0 W/m 6,5 C 9,2 C 0,0 km/h (0 Bft) 98 %
01.06.2014 02:00 9,0 C 9,0 C 9,2 C 83 % 1019,4 hPa 0,0 l/m 0,0 km/h (0 Bft) N 0 0 min 0,000 mm 0 W/m 6,3 C 9,0 C 0,0 km/h (0 Bft) 97 %
01.06.2014 02:10 8,8 C 8,7 C 9,0 C 84 % 1019,3 hPa 0,0 l/m 0,0 km/h (0 Bft) N 0 0 min 0,000 mm 0 W/m 6,2 C 8,8 C 0,0 km/h (0 Bft) 98 %
01.06.2014 02:20 8,5 C 8,5 C 8,7 C 84 % 1019,3 hPa 0,0 l/m 0,0 km/h (0 Bft) N 0 0 min 0,000 mm 0 W/m 6,0 C 8,5 C 0,0 km/h (0 Bft) 97 %
01.06.2014 02:30 8,3 C 8,3 C 8,5 C 85 % 1019,2 hPa 0,0 l/m 0,0 km/h (0 Bft) N 0 0 min 0,000 mm 0 W/m 5,9 C 8,3 C 0,0 km/h (0 Bft) 98 %
01.06.2014 02:40 8,2 C 8,2 C 8,3 C 85 % 1019,2 hPa 0,0 l/m 0,0 km/h (0 Bft) N 0 0 min 0,000 mm 0 W/m 5,8 C 8,2 C 0,0 km/h (0 Bft) 98 %
01.06.2014 02:50 8,3 C 8,2 C 8,3 C 86 % 1019,2 hPa 0,0 l/m 0,0 km/h (0 Bft) N 0 0 min 0,000 mm 0 W/m 6,1 C 8,3 C 0,0 km/h (0 Bft) 97 %
01.06.2014 03:00 8,3 C 8,2 C 8,3 C 86 % 1019,1 hPa 0,0 l/m 0,0 km/h (0 Bft) N 0 0 min 0,000 mm 0 W/m 6,1 C 8,3 C 0,0 km/h (0 Bft) 98 %
01.06.2014 03:10 8,3 C 8,3 C 8,3 C 86 % 1019,1 hPa 0,0 l/m 0,0 km/h (0 Bft) N 0 0 min 0,000 mm 0 W/m 6,1 C 8,3 C 0,0 km/h (0 Bft) 97 %
01.06.2014 03:20 8,4 C 8,3 C 8,4 C 86 % 1019,0 hPa 0,0 l/m 0,0 km/h (0 Bft) N 0 0 min 0,000 mm 0 W/m 6,2 C 8,4 C 0,0 km/h (0 Bft) 98 %
01.06.2014 03:30 8,5 C 8,4 C 8,5 C 86 % 1019,0 hPa 0,0 l/m 0,0 km/h (0 Bft) N 0 0 min 0,000 mm 0 W/m 6,3 C 8,5 C 0,0 km/h (0 Bft) 97 %
01.06.2014 03:40 8,6 C 8,5 C 8,6 C 86 % 1018,9 hPa 0,0 l/m 0,0 km/h (0 Bft) N 0 0 min 0,000 mm 0 W/m 6,4 C 8,6 C 0,0 km/h (0 Bft) 98 %
01.06.2014 03:50 8,6 C 8,6 C 8,6 C 86 % 1018,9 hPa 0,0 l/m 0,0 km/h (0 Bft) N 0 0 min 0,000 mm 0 W/m 6,4 C 8,6 C 0,0 km/h (0 Bft) 97 %
01.06.2014 04:00 8,6 C 8,6 C 8,6 C 86 % 1018,8 hPa 0,0 l/m 0,0 km/h (0 Bft) N 0 0 min 0,000 mm 0 W/m 6,4 C 8,6 C 0,0 km/h (0 Bft) 98 %
01.06.2014 04:10 8,6 C 8,6 C 8,6 C 86 % 1018,8 hPa 0,0 l/m 0,0 km/h (0 Bft) N 0 0 min 0,000 mm 0 W/m 6,4 C 8,6 C 0,0 km/h (0 Bft) 97 %
01.06.2014 04:20 8,6 C 8,6 C 8,6 C 86 % 1018,7 hPa 0,0 l/m 0,0 km/h (0 Bft) N 0 0 min 0,000 mm 0 W/m 6,4 C 8,6 C 0,0 km/h (0 Bft) 97 %
01.06.2014 04:30 8,6 C 8,6 C 8,6 C 86 % 1018,7 hPa 0,0 l/m 0,0 km/h (0 Bft) N 0 0 min 0,000 mm 0 W/m 6,4 C 8,6 C 0,0 km/h (0 Bft) 98 %
01.06.2014 04:40 8,6 C 8,6 C 8,7 C 86 % 1018,7 hPa 0,0 l/m 0,0 km/h (0 Bft) N 0 0 min 0,000 mm 0 W/m 6,4 C 8,6 C 0,0 km/h (0 Bft) 97 %
01.06.2014 04:50 8,6 C 8,6 C 8,6 C 86 % 1018,7 hPa 0,0 l/m 0,0 km/h (0 Bft) N 0 0 min 0,000 mm 0 W/m 6,4 C 8,6 C 0,0 km/h (0 Bft) 98 %
01.06.2014 05:00 8,6 C 8,6 C 8,6 C 86 % 1018,7 hPa 0,0 l/m 0,0 km/h (0 Bft) N 0 0 min 0,000 mm 0 W/m 6,4 C 8,6 C 0,0 km/h (0 Bft) 97 %
01.06.2014 05:10 8,6 C 8,6 C 8,6 C 86 % 1018,7 hPa 0,0 l/m 0,0 km/h (0 Bft) N 0 0 min 0,000 mm 0 W/m 6,4 C 8,6 C 0,0 km/h (0 Bft) 97 %
01.06.2014 05:20 8,6 C 8,6 C 8,6 C 87 % 1018,8 hPa 0,0 l/m 0,0 km/h (0 Bft) N 0 0 min 0,000 mm 0 W/m 6,6 C 8,6 C 0,0 km/h (0 Bft) 98 %
01.06.2014 05:30 8,6 C 8,6 C 8,6 C 87 % 1018,8 hPa 0,0 l/m 0,0 km/h (0 Bft) N 0 0 min 0,000 mm 0 W/m 6,6 C 8,6 C 0,0 km/h (0 Bft) 97 %
01.06.2014 05:40 8,7 C 8,6 C 8,7 C 87 % 1018,8 hPa 0,0 l/m 0,0 km/h (0 Bft) N 0 0 min 0,000 mm 5 W/m 6,7 C 8,7 C 0,0 km/h (0 Bft) 98 %
01.06.2014 05:50 8,8 C 8,7 C 8,8 C 87 % 1018,8 hPa 0,0 l/m 0,0 km/h (0 Bft) N 0 0 min 0,000 mm 7 W/m 6,8 C 8,8 C 0,0 km/h (0 Bft) 97 %
01.06.2014 06:00 8,9 C 8,8 C 8,9 C 87 % 1018,8 hPa 0,0 l/m 0,0 km/h (0 Bft) N 0 0 min 0,000 mm 11 W/m 6,9 C 8,9 C 0,0 km/h (0 Bft) 98 %
01.06.2014 06:10 9,0 C 8,9 C 9,0 C 87 % 1018,8 hPa 0,0 l/m 0,0 km/h (0 Bft) N 0 0 min 0,000 mm 14 W/m 7,0 C 9,0 C 0,0 km/h (0 Bft) 97 %
01.06.2014 06:20 9,1 C 9,0 C 9,1 C 87 % 1018,7 hPa 0,0 l/m 0,0 km/h (0 Bft) N 0 0 min 0,000 mm 21 W/m 7,1 C 9,1 C 0,0 km/h (0 Bft) 97 %
01.06.2014 06:30 9,1 C 9,1 C 9,1 C 87 % 1018,7 hPa 0,0 l/m 0,0 km/h (0 Bft) N 0 0 min 0,000 mm 30 W/m 7,1 C 9,1 C 0,0 km/h (0 Bft) 98 %
01.06.2014 06:40 9,3 C 9,1 C 9,3 C 87 % 1018,8 hPa 0,0 l/m 0,0 km/h (0 Bft) N 0 0 min 0,000 mm 30 W/m 7,2 C 9,3 C 0,0 km/h (0 Bft) 97 %
01.06.2014 06:50 9,3 C 9,3 C 9,3 C 87 % 1018,9 hPa 0,0 l/m 0,0 km/h (0 Bft) N 0 0 min 0,000 mm 33 W/m 7,2 C 9,3 C 0,0 km/h (0 Bft) 98 %
01.06.2014 07:00 9,4 C 9,3 C 9,4 C 87 % 1018,9 hPa 0,0 l/m 0,0 km/h (0 Bft) N 0 0 min 0,025 mm 39 W/m 7,3 C 9,4 C 0,0 km/h (0 Bft) 89 %
01.06.2014 07:10 9,6 C 9,4 C 9,6 C 87 % 1018,8 hPa 0,0 l/m 0,0 km/h (0 Bft) N 0 0 min 0,000 mm 51 W/m 7,5 C 9,6 C 0,0 km/h (0 Bft) 98 %
01.06.2014 07:20 9,8 C 9,6 C 9,8 C 87 % 1018,8 hPa 0,0 l/m 0,0 km/h (0 Bft) N 0 0 min 0,000 mm 65 W/m 7,7 C 9,8 C 0,0 km/h (0 Bft) 97 %
01.06.2014 07:30 9,9 C 9,8 C 9,9 C 87 % 1019,0 hPa 0,0 l/m 0,0 km/h (0 Bft) N 0 0 min 0,000 mm 72 W/m 7,8 C 9,9 C 0,0 km/h (0 Bft) 98 %
01.06.2014 07:40 10,2 C 9,9 C 10,2 C 87 % 1019,0 hPa 0,0 l/m 0,0 km/h (0 Bft) N 0 0 min 0,000 mm 86 W/m 8,1 C 10,2 C 0,0 km/h (0 Bft) 98 %
01.06.2014 07:50 10,5 C 10,2 C 10,5 C 87 % 1018,9 hPa 0,0 l/m 0,0 km/h (0 Bft) N 0 0 min 0,000 mm 109 W/m 8,4 C 10,5 C 0,0 km/h (0 Bft) 97 %
01.06.2014 08:00 10,7 C 10,6 C 10,7 C 86 % 1019,0 hPa 0,0 l/m 3,2 km/h (1 Bft) NW 315 0 min 0,025 mm 123 W/m 8,5 C 10,7 C 14,5 km/h (3 Bft) 98 %
01.06.2014 08:10 10,9 C 10,7 C 10,9 C 86 % 1019,0 hPa 0,0 l/m 0,0 km/h (0 Bft) N 0 0 min 0,000 mm 139 W/m 8,7 C 10,9 C 0,0 km/h (0 Bft) 97 %
01.06.2014 08:20 11,2 C 10,9 C 11,2 C 85 % 1019,0 hPa 0,0 l/m 0,0 km/h (0 Bft) N 0 10 min 0,000 mm 156 W/m 8,8 C 11,2 C 0,0 km/h (0 Bft) 98 %
01.06.2014 08:30 11,6 C 11,2 C 11,6 C 83 % 1019,0 hPa 0,0 l/m 0,0 km/h (0 Bft) N 0 10 min 0,000 mm 167 W/m 8,8 C 11,6 C 0,0 km/h (0 Bft) 97 %
01.06.2014 08:40 12,0 C 11,6 C 12,0 C 82 % 1019,0 hPa 0,0 l/m 0,0 km/h (0 Bft) N-NO 22 10 min 0,000 mm 188 W/m 9,0 C 12,0 C 1,6 km/h (1 Bft) 98 %
01.06.2014 08:50 12,5 C 12,0 C 12,5 C 79 % 1019,1 hPa 0,0 l/m 0,0 km/h (0 Bft) NW 315 10 min 0,000 mm 209 W/m 9,0 C 12,5 C 6,4 km/h (2 Bft) 98 %
01.06.2014 09:00 13,0 C 12,5 C 13,0 C 80 % 1019,1 hPa 0,0 l/m 1,6 km/h (1 Bft) NW 315 10 min 0,076 mm 223 W/m 9,6 C 13,0 C 6,4 km/h (2 Bft) 97 %
01.06.2014 09:10 13,3 C 13,0 C 13,3 C 77 % 1019,0 hPa 0,0 l/m 0,0 km/h (0 Bft) W-SW 247 10 min 0,000 mm 223 W/m 9,4 C 13,3 C 1,6 km/h (1 Bft) 98 %
01.06.2014 09:20 13,4 C 13,3 C 13,4 C 75 % 1019,1 hPa 0,0 l/m 0,0 km/h (0 Bft) W-SW 247 10 min 0,000 mm 190 W/m 9,1 C 13,4 C 3,2 km/h (1 Bft) 97 %
01.06.2014 09:30 13,7 C 13,4 C 13,7 C 73 % 1019,0 hPa 0,0 l/m 0,0 km/h (0 Bft) SW 225 10 min 0,000 mm 624 W/m 8,9 C 13,7 C 1,6 km/h (1 Bft) 98 %
01.06.2014 09:40 14,8 C 13,8 C 14,8 C 70 % 1019,0 hPa 0,0 l/m 0,0 km/h (0 Bft) W-SW 247 10 min 0,000 mm 638 W/m 9,4 C 14,8 C 4,8 km/h (1 Bft) 97 %
01.06.2014 09:50 15,4 C 14,8 C 15,4 C 71 % 1019,1 hPa 0,0 l/m 0,0 km/h (0 Bft) N-NO 22 10 min 0,000 mm 693 W/m 10,2 C 15,4 C 4,8 km/h (1 Bft) 98 %
01.06.2014 10:00 15,8 C 15,4 C 15,8 C 69 % 1019,0 hPa 0,0 l/m 0,0 km/h (0 Bft) N 360 10 min 0,229 mm 677 W/m 10,1 C 15,8 C 8,0 km/h (2 Bft) 98 %
01.06.2014 10:10 16,1 C 15,8 C 16,1 C 68 % 1019,0 hPa 0,0 l/m 0,0 km/h (0 Bft) NW 315 10 min 0,000 mm 724 W/m 10,2 C 16,1 C 4,8 km/h (1 Bft) 97 %
01.06.2014 10:20 16,8 C 16,1 C 16,8 C 67 % 1018,9 hPa 0,0 l/m 0,0 km/h (0 Bft) NW 315 10 min 0,000 mm 786 W/m 10,6 C 16,8 C 6,4 km/h (2 Bft) 98 %
01.06.2014 10:30 17,0 C 16,8 C 17,0 C 66 % 1018,9 hPa 0,0 l/m 0,0 km/h (0 Bft) N 360 10 min 0,000 mm 886 W/m 10,6 C 17,0 C 4,8 km/h (1 Bft) 97 %
01.06.2014 10:40 17,3 C 17,0 C 17,3 C 64 % 1018,8 hPa 0,0 l/m 1,6 km/h (1 Bft) NW 315 10 min 0,000 mm 932 W/m 10,4 C 17,3 C 6,4 km/h (2 Bft) 98 %
01.06.2014 10:50 17,4 C 17,4 C 17,4 C 62 % 1018,9 hPa 0,0 l/m 0,0 km/h (0 Bft) NW 315 10 min 0,000 mm 520 W/m 10,0 C 17,4 C 4,8 km/h (1 Bft) 97 %
01.06.2014 11:00 17,4 C 17,3 C 17,4 C 62 % 1018,9 hPa 0,0 l/m 0,0 km/h (0 Bft) N-NW 337 10 min 0,356 mm 504 W/m 10,0 C 17,4 C 4,8 km/h (1 Bft) 97 %
01.06.2014 11:10 17,6 C 17,4 C 17,6 C 61 % 1018,8 hPa 0,0 l/m 0,0 km/h (0 Bft) N-NW 337 10 min 0,000 mm 497 W/m 10,0 C 17,6 C 4,8 km/h (1 Bft) 98 %
01.06.2014 11:20 17,9 C 17,6 C 17,9 C 63 % 1018,8 hPa 0,0 l/m 0,0 km/h (0 Bft) NW 315 10 min 0,000 mm 563 W/m 10,8 C 17,9 C 8,0 km/h (2 Bft) 97 %
01.06.2014 11:30 18,3 C 17,9 C 18,3 C 61 % 1018,8 hPa 0,0 l/m 0,0 km/h (0 Bft) NO 45 10 min 0,000 mm 591 W/m 10,6 C 18,3 C 6,4 km/h (2 Bft) 98 %
01.06.2014 11:40 18,6 C 18,3 C 18,6 C 61 % 1018,7 hPa 0,0 l/m 0,0 km/h (0 Bft) NO 45 10 min 0,000 mm 621 W/m 10,9 C 18,6 C 1,6 km/h (1 Bft) 97 %
01.06.2014 11:50 18,8 C 18,6 C 18,8 C 57 % 1018,7 hPa 0,0 l/m 0,0 km/h (0 Bft) N 360 10 min 0,000 mm 798 W/m 10,1 C 18,8 C 4,8 km/h (1 Bft) 98 %
01.06.2014 12:00 19,1 C 18,8 C 19,1 C 55 % 1018,6 hPa 0,0 l/m 1,6 km/h (1 Bft) NW 315 10 min 0,356 mm 1178 W/m 9,8 C 19,1 C 9,7 km/h (2 Bft) 97 %
01.06.2014 12:10 19,6 C 19,1 C 19,6 C 55 % 1018,7 hPa 0,0 l/m 3,2 km/h (1 Bft) NW 315 10 min 0,000 mm 879 W/m 10,3 C 19,6 C 11,3 km/h (2 Bft) 98 %
01.06.2014 12:20 20,0 C 19,6 C 20,0 C 54 % 1018,6 hPa 0,0 l/m 1,6 km/h (1 Bft) NW 315 10 min 0,000 mm 1111 W/m 10,4 C 20,0 C 9,7 km/h (2 Bft) 98 %
01.06.2014 12:30 20,1 C 20,0 C 20,1 C 52 % 1018,6 hPa 0,0 l/m 0,0 km/h (0 Bft) N-NO 22 10 min 0,000 mm 656 W/m 9,9 C 20,1 C 1,6 km/h (1 Bft) 97 %
01.06.2014 12:40 20,1 C 20,1 C 20,1 C 52 % 1018,6 hPa 0,0 l/m 1,6 km/h (1 Bft) NW 315 10 min 0,000 mm 724 W/m 9,9 C 20,1 C 8,0 km/h (2 Bft) 98 %
01.06.2014 12:50 20,0 C 20,0 C 20,1 C 48 % 1018,6 hPa 0,0 l/m 0,0 km/h (0 Bft) O-SO 112 10 min 0,000 mm 1223 W/m 8,7 C 20,0 C 4,8 km/h (1 Bft) 97 %
01.06.2014 13:00 19,9 C 19,9 C 20,1 C 47 % 1018,6 hPa 0,0 l/m 0,2 km/h (0 Bft) N-NW 336 10 min 0,382 mm 415 W/m 8,3 C 19,9 C 1,6 km/h (1 Bft) 100 %
01.06.2014 13:10 19,7 C 19,7 C 19,9 C 49 % 1018,6 hPa 0,0 l/m 1,9 km/h (1 Bft) NW 326 10 min 0,000 mm 302 W/m 8,7 C 19,7 C 9,7 km/h (2 Bft) 100 %
01.06.2014 13:20 19,3 C 19,3 C 19,7 C 53 % 1018,6 hPa 0,0 l/m 1,6 km/h (1 Bft) NW 317 10 min 0,000 mm 367 W/m 9,5 C 19,3 C 9,7 km/h (2 Bft) 100 %
01.06.2014 13:30 19,4 C 19,2 C 19,4 C 51 % 1018,5 hPa 0,0 l/m 2,3 km/h (1 Bft) NW 316 10 min 0,000 mm 348 W/m 9,0 C 19,4 C 9,7 km/h (2 Bft) 100 %
01.06.2014 13:40 19,1 C 19,1 C 19,4 C 52 % 1018,4 hPa 0,0 l/m 0,7 km/h (0 Bft) N-NW 338 10 min 0,000 mm 320 W/m 9,0 C 19,1 C 8,0 km/h (2 Bft) 100 %
01.06.2014 13:50 19,0 C 18,9 C 19,1 C 51 % 1018,5 hPa 0,0 l/m 0,0 km/h (0 Bft) N-NW 342 10 min 0,000 mm 348 W/m 8,6 C 19,0 C 1,6 km/h (1 Bft) 100 %
01.06.2014 14:00 19,0 C 18,9 C 19,0 C 53 % 1018,5 hPa 0,0 l/m 1,1 km/h (1 Bft) N-NW 347 10 min 0,254 mm 578 W/m 9,2 C 19,0 C 8,0 km/h (2 Bft) 100 %
01.06.2014 14:10 19,7 C 19,0 C 19,7 C 51 % 1018,2 hPa 0,0 l/m 2,4 km/h (1 Bft) O-NO 73 10 min 0,000 mm 471 W/m 9,3 C 19,7 C 12,9 km/h (3 Bft) 100 %
01.06.2014 14:20 19,9 C 19,7 C 19,9 C 50 % 1018,2 hPa 0,0 l/m 0,9 km/h (0 Bft) N-NW 336 10 min 0,000 mm 360 W/m 9,2 C 19,9 C 6,4 km/h (2 Bft) 100 %
01.06.2014 14:30 19,8 C 19,8 C 19,9 C 48 % 1018,2 hPa 0,0 l/m 1,0 km/h (0 Bft) N 355 10 min 0,000 mm 443 W/m 8,5 C 19,8 C 9,7 km/h (2 Bft) 100 %
01.06.2014 14:40 19,9 C 19,8 C 19,9 C 48 % 1018,1 hPa 0,0 l/m 0,5 km/h (0 Bft) NW 316 10 min 0,000 mm 520 W/m 8,6 C 19,9 C 6,4 km/h (2 Bft) 99 %
01.06.2014 14:50 20,1 C 19,9 C 20,1 C 45 % 1018,1 hPa 0,0 l/m 3,0 km/h (1 Bft) W-NW 300 10 min 0,000 mm 380 W/m 7,8 C 20,1 C 11,3 km/h (2 Bft) 100 %
01.06.2014 15:00 20,0 C 19,9 C 20,1 C 45 % 1018,0 hPa 0,0 l/m 0,7 km/h (0 Bft) W 262 10 min 0,304 mm 302 W/m 7,7 C 20,0 C 6,4 km/h (2 Bft) 100 %
01.06.2014 15:10 19,7 C 19,7 C 20,0 C 50 % 1018,0 hPa 0,0 l/m 1,0 km/h (0 Bft) N-NW 343 10 min 0,000 mm 213 W/m 9,0 C 19,7 C 9,7 km/h (2 Bft) 100 %
01.06.2014 15:20 19,1 C 19,1 C 19,7 C 52 % 1017,9 hPa 0,0 l/m 2,3 km/h (1 Bft) NW 322 10 min 0,000 mm 165 W/m 9,0 C 19,1 C 8,0 km/h (2 Bft) 100 %
01.06.2014 15:30 18,6 C 18,6 C 19,1 C 53 % 1017,9 hPa 0,0 l/m 2,4 km/h (1 Bft) N-NW 336 10 min 0,000 mm 178 W/m 8,8 C 18,6 C 11,3 km/h (2 Bft) 100 %
01.06.2014 15:40 18,4 C 18,4 C 18,6 C 53 % 1018,0 hPa 0,0 l/m 4,0 km/h (1 Bft) N-NW 327 10 min 0,000 mm 188 W/m 8,6 C 18,4 C 11,3 km/h (2 Bft) 100 %
01.06.2014 15:50 18,3 C 18,3 C 18,5 C 53 % 1018,0 hPa 0,0 l/m 1,1 km/h (1 Bft) NW 320 10 min 0,000 mm 199 W/m 8,6 C 18,3 C 8,0 km/h (2 Bft) 100 %
01.06.2014 16:00 18,2 C 18,2 C 18,3 C 52 % 1018,0 hPa 0,0 l/m 2,1 km/h (1 Bft) N-NW 338 10 min 0,127 mm 239 W/m 8,2 C 18,2 C 6,4 km/h (2 Bft) 100 %
01.06.2014 16:10 18,3 C 18,2 C 18,3 C 56 % 1017,9 hPa 0,0 l/m 0,2 km/h (0 Bft) N-NW 329 10 min 0,000 mm 320 W/m 9,4 C 18,3 C 3,2 km/h (1 Bft) 100 %
01.06.2014 16:20 18,4 C 18,3 C 18,4 C 55 % 1017,8 hPa 0,0 l/m 0,7 km/h (0 Bft) N-NW 331 10 min 0,000 mm 420 W/m 9,2 C 18,4 C 6,4 km/h (2 Bft) 100 %
01.06.2014 16:30 19,1 C 18,4 C 19,1 C 53 % 1017,9 hPa 0,0 l/m 1,4 km/h (1 Bft) N-NW 329 10 min 0,000 mm 891 W/m 9,3 C 19,1 C 9,7 km/h (2 Bft) 100 %
01.06.2014 16:40 20,2 C 19,1 C 20,2 C 48 % 1017,9 hPa 0,0 l/m 3,3 km/h (1 Bft) O 89 10 min 0,000 mm 758 W/m 8,8 C 20,2 C 11,3 km/h (2 Bft) 100 %
01.06.2014 16:50 20,1 C 20,1 C 20,3 C 46 % 1017,8 hPa 0,0 l/m 0,4 km/h (0 Bft) N-NW 333 10 min 0,000 mm 171 W/m 8,1 C 20,1 C 8,0 km/h (2 Bft) 100 %
01.06.2014 17:00 19,6 C 19,6 C 20,1 C 46 % 1017,7 hPa 0,0 l/m 0,1 km/h (0 Bft) O-SO 107 10 min 0,254 mm 304 W/m 7,7 C 19,6 C 3,2 km/h (1 Bft) 99 %
01.06.2014 17:10 19,5 C 19,4 C 19,6 C 43 % 1017,6 hPa 0,0 l/m 0,1 km/h (0 Bft) SO 134 10 min 0,000 mm 612 W/m 6,6 C 19,5 C 3,2 km/h (1 Bft) 100 %
01.06.2014 17:20 19,8 C 19,5 C 19,8 C 47 % 1017,5 hPa 0,0 l/m 0,9 km/h (0 Bft) S 169 10 min 0,000 mm 663 W/m 8,2 C 19,8 C 6,4 km/h (2 Bft) 100 %
01.06.2014 17:30 20,2 C 19,8 C 20,2 C 43 % 1017,5 hPa 0,0 l/m 0,3 km/h (0 Bft) SW 230 10 min 0,000 mm 255 W/m 7,2 C 20,2 C 4,8 km/h (1 Bft) 100 %
01.06.2014 17:40 20,4 C 20,2 C 20,4 C 45 % 1017,5 hPa 0,0 l/m 0,8 km/h (0 Bft) SW 225 10 min 0,000 mm 357 W/m 8,1 C 20,4 C 8,0 km/h (2 Bft) 100 %
01.06.2014 17:50 20,5 C 20,4 C 20,5 C 43 % 1017,3 hPa 0,0 l/m 1,5 km/h (1 Bft) W-NW 302 10 min 0,000 mm 452 W/m 7,5 C 20,5 C 8,0 km/h (2 Bft) 100 %
01.06.2014 18:00 20,5 C 20,5 C 20,6 C 43 % 1017,3 hPa 0,0 l/m 1,9 km/h (1 Bft) N 350 10 min 0,254 mm 413 W/m 7,5 C 20,5 C 9,7 km/h (2 Bft) 100 %
01.06.2014 18:10 20,2 C 20,2 C 20,5 C 45 % 1017,4 hPa 0,0 l/m 0,0 km/h (0 Bft) NW 321 0 min 0,000 mm 121 W/m 7,9 C 20,2 C 1,6 km/h (1 Bft) 100 %
01.06.2014 18:20 19,8 C 19,8 C 20,2 C 49 % 1017,3 hPa 0,0 l/m 0,0 km/h (0 Bft) NW 321 0 min 0,000 mm 113 W/m 8,8 C 19,8 C 0,0 km/h (0 Bft) 100 %
01.06.2014 18:30 19,2 C 19,2 C 19,8 C 50 % 1017,4 hPa 0,0 l/m 0,0 km/h (0 Bft) NW 319 0 min 0,000 mm 111 W/m 8,5 C 19,2 C 0,0 km/h (0 Bft) 100 %
01.06.2014 18:40 18,9 C 18,9 C 19,2 C 53 % 1017,3 hPa 0,0 l/m 0,0 km/h (0 Bft) NW 319 0 min 0,000 mm 125 W/m 9,1 C 18,9 C 1,6 km/h (1 Bft) 100 %
01.06.2014 18:50 18,8 C 18,8 C 18,9 C 51 % 1017,3 hPa 0,0 l/m 0,0 km/h (0 Bft) NW 319 0 min 0,000 mm 125 W/m 8,4 C 18,8 C 1,6 km/h (1 Bft) 100 %
01.06.2014 19:00 18,8 C 18,7 C 18,8 C 53 % 1017,3 hPa 0,0 l/m 0,0 km/h (0 Bft) NW 322 0 min 0,102 mm 104 W/m 9,0 C 18,8 C 1,6 km/h (1 Bft) 100 %
01.06.2014 19:10 18,7 C 18,7 C 18,8 C 53 % 1017,2 hPa 0,0 l/m 0,0 km/h (0 Bft) N-NW 340 0 min 0,000 mm 123 W/m 8,9 C 18,7 C 1,6 km/h (1 Bft) 100 %
01.06.2014 19:20 18,5 C 18,5 C 18,7 C 54 % 1017,4 hPa 0,0 l/m 0,0 km/h (0 Bft) N-NW 340 0 min 0,000 mm 113 W/m 9,0 C 18,5 C 0,0 km/h (0 Bft) 100 %
01.06.2014 19:30 18,3 C 18,3 C 18,5 C 56 % 1017,4 hPa 0,0 l/m 0,0 km/h (0 Bft) N-NW 340 0 min 0,000 mm 86 W/m 9,4 C 18,3 C 0,0 km/h (0 Bft) 100 %
01.06.2014 19:40 18,1 C 18,1 C 18,3 C 58 % 1017,4 hPa 0,0 l/m 0,0 km/h (0 Bft) NW 325 0 min 0,000 mm 63 W/m 9,7 C 18,1 C 0,0 km/h (0 Bft) 100 %
01.06.2014 19:50 17,7 C 17,7 C 18,1 C 61 % 1017,3 hPa 0,0 l/m 0,0 km/h (0 Bft) NW 325 0 min 0,000 mm 46 W/m 10,1 C 17,7 C 0,0 km/h (0 Bft) 100 %
01.06.2014 20:00 17,3 C 17,3 C 17,7 C 60 % 1017,4 hPa 0,0 l/m 0,0 km/h (0 Bft) NW 325 0 min 0,051 mm 33 W/m 9,5 C 17,3 C 0,0 km/h (0 Bft) 100 %
01.06.2014 20:10 17,1 C 17,1 C 17,3 C 62 % 1017,3 hPa 0,0 l/m 0,0 km/h (0 Bft) NW 325 0 min 0,000 mm 23 W/m 9,8 C 17,1 C 0,0 km/h (0 Bft) 100 %
01.06.2014 20:20 16,8 C 16,8 C 17,1 C 63 % 1017,4 hPa 0,0 l/m 0,0 km/h (0 Bft) NW 325 0 min 0,000 mm 18 W/m 9,7 C 16,8 C 0,0 km/h (0 Bft) 100 %
01.06.2014 20:30 16,6 C 16,6 C 16,8 C 63 % 1017,3 hPa 0,0 l/m 0,0 km/h (0 Bft) N-NO 26 0 min 0,000 mm 14 W/m 9,5 C 16,6 C 0,0 km/h (0 Bft) 100 %
01.06.2014 20:40 16,4 C 16,4 C 16,6 C 63 % 1017,4 hPa 0,0 l/m 0,0 km/h (0 Bft) S-SW 194 0 min 0,000 mm 11 W/m 9,3 C 16,4 C 0,0 km/h (0 Bft) 100 %
01.06.2014 20:50 16,1 C 16,1 C 16,4 C 66 % 1017,5 hPa 0,0 l/m 0,0 km/h (0 Bft) N-NO 15 0 min 0,000 mm 7 W/m 9,7 C 16,1 C 0,0 km/h (0 Bft) 100 %
01.06.2014 21:00 15,9 C 15,9 C 16,1 C 66 % 1017,6 hPa 0,0 l/m 0,0 km/h (0 Bft) N-NO 18 0 min 0,025 mm 0 W/m 9,6 C 15,9 C 0,0 km/h (0 Bft) 100 %
01.06.2014 21:10 15,6 C 15,6 C 15,9 C 64 % 1017,6 hPa 0,0 l/m 0,0 km/h (0 Bft) N 0 0 min 0,000 mm 0 W/m 8,8 C 15,6 C 0,0 km/h (0 Bft) 97 %
01.06.2014 21:20 15,4 C 15,4 C 15,6 C 65 % 1017,6 hPa 0,0 l/m 0,0 km/h (0 Bft) N-NO 22 0 min 0,000 mm 0 W/m 8,9 C 15,4 C 3,2 km/h (1 Bft) 98 %
01.06.2014 21:30 15,2 C 15,2 C 15,4 C 67 % 1017,8 hPa 0,0 l/m 0,0 km/h (0 Bft) N 0 0 min 0,000 mm 0 W/m 9,1 C 15,2 C 0,0 km/h (0 Bft) 96 %
01.06.2014 21:40 15,1 C 15,1 C 15,2 C 65 % 1018,0 hPa 0,0 l/m 0,0 km/h (0 Bft) N 0 0 min 0,000 mm 0 W/m 8,6 C 15,1 C 0,0 km/h (0 Bft) 98 %
01.06.2014 21:50 15,0 C 15,0 C 15,1 C 69 % 1018,0 hPa 0,0 l/m 0,0 km/h (0 Bft) N 0 0 min 0,000 mm 0 W/m 9,4 C 15,0 C 0,0 km/h (0 Bft) 97 %
01.06.2014 22:00 14,8 C 14,8 C 15,0 C 69 % 1018,0 hPa 0,0 l/m 0,0 km/h (0 Bft) N 0 0 min 0,000 mm 0 W/m 9,2 C 14,8 C 0,0 km/h (0 Bft) 98 %
01.06.2014 22:10 14,7 C 14,6 C 14,8 C 68 % 1017,9 hPa 0,0 l/m 0,0 km/h (0 Bft) N 0 0 min 0,000 mm 0 W/m 8,9 C 14,7 C 0,0 km/h (0 Bft) 98 %
01.06.2014 22:20 14,5 C 14,5 C 14,6 C 69 % 1017,9 hPa 0,0 l/m 0,0 km/h (0 Bft) N 0 0 min 0,000 mm 0 W/m 8,9 C 14,5 C 0,0 km/h (0 Bft) 97 %
01.06.2014 22:30 14,4 C 14,4 C 14,5 C 69 % 1017,9 hPa 0,0 l/m 0,0 km/h (0 Bft) N 0 0 min 0,000 mm 0 W/m 8,8 C 14,4 C 0,0 km/h (0 Bft) 98 %
01.06.2014 22:40 14,3 C 14,3 C 14,4 C 70 % 1017,8 hPa 0,0 l/m 0,0 km/h (0 Bft) N 0 0 min 0,000 mm 0 W/m 8,9 C 14,3 C 0,0 km/h (0 Bft) 97 %
01.06.2014 22:50 14,3 C 14,3 C 14,3 C 69 % 1017,9 hPa 0,0 l/m 0,0 km/h (0 Bft) N-NO 22 0 min 0,000 mm 0 W/m 8,7 C 14,3 C 1,6 km/h (1 Bft) 98 %
01.06.2014 23:00 14,2 C 14,2 C 14,3 C 72 % 1018,0 hPa 0,0 l/m 1,6 km/h (1 Bft) N 360 0 min 0,025 mm 0 W/m 9,2 C 14,2 C 4,8 km/h (1 Bft) 98 %
01.06.2014 23:10 14,1 C 14,1 C 14,3 C 72 % 1017,9 hPa 0,0 l/m 0,0 km/h (0 Bft) N 360 0 min 0,000 mm 0 W/m 9,1 C 14,1 C 1,6 km/h (1 Bft) 98 %
01.06.2014 23:20 13,9 C 13,9 C 14,1 C 72 % 1018,0 hPa 0,0 l/m 0,0 km/h (0 Bft) N 0 0 min 0,000 mm 0 W/m 8,9 C 13,9 C 0,0 km/h (0 Bft) 97 %
01.06.2014 23:30 13,9 C 13,9 C 13,9 C 74 % 1018,0 hPa 0,0 l/m 0,0 km/h (0 Bft) N 360 0 min 0,000 mm 0 W/m 9,3 C 13,9 C 1,6 km/h (1 Bft) 98 %
01.06.2014 23:40 13,8 C 13,8 C 13,9 C 74 % 1018,0 hPa 0,0 l/m 0,0 km/h (0 Bft) N 360 0 min 0,000 mm 0 W/m 9,2 C 13,8 C 1,6 km/h (1 Bft) 97 %
01.06.2014 23:50 13,6 C 13,6 C 13,8 C 75 % 1017,9 hPa 0,0 l/m 0,0 km/h (0 Bft) N 0 0 min 0,000 mm 0 W/m 9,3 C 13,6 C 0,0 km/h (0 Bft) 97 %
_ Min-Zeit 02:40 02:40 02:40 17:10 19:10 - 00:00 - - - - - 02:40 02:40 00:00 01:40
Minimum _ 8,2 C 8,2 C 8,3 C 43 % 1017,2 hPa - 0,0 km/h (0 Bft) - - - - - 5,8 C 8,2 C 0,0 km/h (0 Bft) 86 %
_ Max-Zeit 18:00 18:00 18:00 05:20 00:10 00:00 15:40 - - 08:20 13:00 12:50 11:40 17:50 08:00 00:10
Maximum _ 20,6 C 20,5 C 20,6 C 87 % 1019,7 hPa 0,0 l/m 4,0 km/h
N-NW (1 Bft)
- - 10 min 0,382 mm 1223 W/m 10,9 C 20,5 C 14,5 km/h
NW (3 Bft)
100 %
Durchschnitt _ 14,5 C 14,4 C 14,6 C 68 % 1018,4 hPa #0,0 l/m 0,4 km/h (0 Bft) NW - #9:50 h #2,895 mm 339 W/m 8,3 C 14,5 C 2,9 km/h (1 Bft) 98 %
PRIVATE WETTERSTATION BILLIGHEIM-ALLFELD - www.neckar-odenwald-wetter.de - Holger Sonntag